Temp: 12.6°C   Baro: 1022.3mb
  Wind: 0.9mph   Dir: NE (54°)
  Rain: 0.0mm (0.0mm/hr)
  Solar: 0W/m2  Hum: 82%

Historic data

Bath Spa Weather Station Historical Data
Daily Summary for September 23, 2019 Units:  Both    English   Metric
Daily Weekly Monthly Yearly Custom
  High: Low: Average:
Temperature: 58.4 °F /  14.7 °C 41.2 °F /  5.1 °C 48.7 °F /  9.3 °C
Dew Point: 53 °F /  11.7 °C 39.5 °F /  4.2 °C 46.4 °F /  8 °C
Humidity: 96% 80.4% 92%
Wind Speed: 3.1mph /  5km/h - 0.4mph /  0.6km/h
Wind Gust: 8mph /  12.9km/h - -
Wind- - SE
Pressure: 30.14 in /  1020.5 hPa 29.70 in /  1005.6 hPa -
Precipitation: 0.15 in /  3.81 mm    
Historical Graphs
 
 
Tabular Data for September 23, 2019
Time Temperature Dew Point Pressure Wind Wind Speed Wind Gust Humidity Rainfall Rate (Hourly) solar
00:04 44.5 °F /  6.9 °C 42 °F /  5.6 °C 30.14in /  1020.5hPa Calm     91% 0.00in /  0mm 0 W/m2
00:09 44.3 °F /  6.8 °C 41.8 °F /  5.4 °C 30.14in /  1020.5hPa Calm     91% 0.00in /  0mm 0 W/m2
00:14 44.4 °F /  6.9 °C 41.9 °F /  5.5 °C 30.14in /  1020.5hPa Calm     91% 0.00in /  0mm 0 W/m2
00:19 44.3 °F /  6.8 °C 41.8 °F /  5.4 °C 30.14in /  1020.5hPa Calm     91% 0.00in /  0mm 0 W/m2
00:24 44.2 °F /  6.8 °C 41.7 °F /  5.4 °C 30.13in /  1020.2hPa Calm     91% 0.00in /  0mm 0 W/m2
00:29 44 °F /  6.7 °C 41.5 °F /  5.3 °C 30.13in /  1020.2hPa Calm     91% 0.00in /  0mm 0 W/m2
00:34 43.9 °F /  6.6 °C 41.4 °F /  5.2 °C 30.13in /  1020.2hPa Calm     91% 0.00in /  0mm 0 W/m2
00:39 43.9 °F /  6.6 °C 41.4 °F /  5.2 °C 30.13in /  1020.2hPa Calm     91% 0.00in /  0mm 0 W/m2
00:44 43.8 °F /  6.6 °C 41.3 °F /  5.2 °C 30.13in /  1020.2hPa Calm     91% 0.00in /  0mm 0 W/m2
00:49 43.7 °F /  6.5 °C 41.5 °F /  5.3 °C 30.12in /  1019.9hPa Calm     91.9% 0.00in /  0mm 0 W/m2
00:54 43.5 °F /  6.4 °C 41.4 °F /  5.2 °C 30.12in /  1019.9hPa Calm     92% 0.00in /  0mm 0 W/m2
00:59 43.4 °F /  6.3 °C 40.9 °F /  4.9 °C 30.12in /  1019.9hPa Calm   1mph /  1.6km/h 91% 0.00in /  0mm 0 W/m2
01:04 43.3 °F /  6.3 °C 40.8 °F /  4.9 °C 30.12in /  1019.9hPa Calm     91% 0.00in /  0mm 0 W/m2
01:09 43.3 °F /  6.3 °C 41.2 °F /  5.1 °C 30.12in /  1019.9hPa Calm   1mph /  1.6km/h 92% 0.00in /  0mm 0 W/m2
01:14 43.3 °F /  6.3 °C 41.2 °F /  5.1 °C 30.11in /  1019.5hPa Calm     92% 0.00in /  0mm 0 W/m2
01:19 43.1 °F /  6.2 °C 40.9 °F /  4.9 °C 30.11in /  1019.5hPa Calm     92% 0.00in /  0mm 0 W/m2
01:24 43 °F /  6.1 °C 40.8 °F /  4.9 °C 30.11in /  1019.5hPa Calm     92% 0.00in /  0mm 0 W/m2
01:29 43 °F /  6.1 °C 40.8 °F /  4.9 °C 30.11in /  1019.5hPa Calm     92% 0.00in /  0mm 0 W/m2
01:34 43 °F /  6.1 °C 40.8 °F /  4.9 °C 30.11in /  1019.5hPa Calm     92% 0.00in /  0mm 0 W/m2
01:39 42.9 °F /  6.1 °C 40.7 °F /  4.8 °C 30.11in /  1019.5hPa Calm     92% 0.00in /  0mm 0 W/m2
01:44 42.8 °F /  6 °C 40.6 °F /  4.8 °C 30.11in /  1019.5hPa Calm     92% 0.00in /  0mm 0 W/m2
01:49 42.6 °F /  5.9 °C 40.5 °F /  4.7 °C 30.10in /  1019.2hPa Calm     92% 0.00in /  0mm 0 W/m2
01:54 42.6 °F /  5.9 °C 40.5 °F /  4.7 °C 30.10in /  1019.2hPa Calm     92% 0.00in /  0mm 0 W/m2
01:59 42.6 °F /  5.9 °C 40.5 °F /  4.7 °C 30.10in /  1019.2hPa Calm     92% 0.00in /  0mm 0 W/m2
02:04 42.5 °F /  5.8 °C 40.4 °F /  4.7 °C 30.10in /  1019.2hPa Calm     92% 0.00in /  0mm 0 W/m2
02:09 42.4 °F /  5.8 °C 40.3 °F /  4.6 °C 30.10in /  1019.2hPa WSW 0.1mph /  0.2km/h 1mph /  1.6km/h 92% 0.00in /  0mm 0 W/m2
02:14 42.3 °F /  5.7 °C 40.1 °F /  4.5 °C 30.10in /  1019.2hPa Calm   1mph /  1.6km/h 92% 0.00in /  0mm 0 W/m2
02:19 42.2 °F /  5.7 °C 40 °F /  4.4 °C 30.10in /  1019.2hPa Calm   1mph /  1.6km/h 92% 0.00in /  0mm 0 W/m2
02:24 42.1 °F /  5.6 °C 39.9 °F /  4.4 °C 30.09in /  1018.8hPa Calm     92% 0.00in /  0mm 0 W/m2
02:29 42.1 °F /  5.6 °C 39.9 °F /  4.4 °C 30.09in /  1018.8hPa Calm     92% 0.00in /  0mm 0 W/m2
02:34 42.1 °F /  5.6 °C 39.9 °F /  4.4 °C 30.09in /  1018.8hPa Calm     92% 0.00in /  0mm 0 W/m2
02:39 42 °F /  5.6 °C 39.8 °F /  4.3 °C 30.09in /  1018.8hPa WSW 0.1mph /  0.2km/h 1mph /  1.6km/h 92% 0.00in /  0mm 0 W/m2
02:44 42 °F /  5.6 °C 39.8 °F /  4.3 °C 30.09in /  1018.8hPa Calm     92% 0.00in /  0mm 0 W/m2
02:49 42 °F /  5.6 °C 39.9 °F /  4.4 °C 30.09in /  1018.8hPa Calm   1mph /  1.6km/h 92.4% 0.00in /  0mm 0 W/m2
02:54 41.9 °F /  5.5 °C 40.1 °F /  4.5 °C 30.09in /  1018.8hPa Calm     93% 0.00in /  0mm 0 W/m2
02:59 41.8 °F /  5.4 °C 39.8 °F /  4.3 °C 30.09in /  1018.8hPa Calm     92.4% 0.00in /  0mm 0 W/m2
03:04 41.6 °F /  5.3 °C 39.5 °F /  4.2 °C 30.09in /  1018.8hPa Calm     92% 0.00in /  0mm 0 W/m2
03:09 41.5 °F /  5.3 °C 39.5 °F /  4.2 °C 30.09in /  1018.8hPa Calm     92.3% 0.00in /  0mm 0 W/m2
03:14 41.4 °F /  5.2 °C 39.6 °F /  4.2 °C 30.09in /  1018.8hPa Calm     93% 0.00in /  0mm 0 W/m2
03:19 41.4 °F /  5.2 °C 39.6 °F /  4.2 °C 30.09in /  1018.8hPa Calm     93% 0.00in /  0mm 0 W/m2
03:24 41.4 °F /  5.2 °C 39.6 °F /  4.2 °C 30.08in /  1018.5hPa Calm     93% 0.00in /  0mm 0 W/m2
03:29 41.4 °F /  5.2 °C 39.6 °F /  4.2 °C 30.08in /  1018.5hPa Calm     93% 0.00in /  0mm 0 W/m2
03:34 41.4 °F /  5.2 °C 39.6 °F /  4.2 °C 30.07in /  1018.2hPa Calm     93% 0.00in /  0mm 0 W/m2
03:39 41.4 °F /  5.2 °C 39.6 °F /  4.2 °C 30.07in /  1018.2hPa Calm     93% 0.00in /  0mm 0 W/m2
03:44 41.5 °F /  5.3 °C 39.7 °F /  4.3 °C 30.07in /  1018.2hPa Calm     93% 0.00in /  0mm 0 W/m2
03:49 41.5 °F /  5.3 °C 39.7 °F /  4.3 °C 30.07in /  1018.2hPa Calm     93% 0.00in /  0mm 0 W/m2
03:54 41.5 °F /  5.3 °C 39.7 °F /  4.3 °C 30.07in /  1018.2hPa Calm     93% 0.00in /  0mm 0 W/m2
03:59 41.5 °F /  5.3 °C 39.7 °F /  4.3 °C 30.06in /  1017.8hPa Calm     93% 0.00in /  0mm 0 W/m2
04:04 41.5 °F /  5.3 °C 39.7 °F /  4.3 °C 30.06in /  1017.8hPa Calm     93% 0.00in /  0mm 0 W/m2
04:09 41.5 °F /  5.3 °C 39.7 °F /  4.3 °C 30.06in /  1017.8hPa Calm     93% 0.00in /  0mm 0 W/m2
04:14 41.7 °F /  5.4 °C 39.9 °F /  4.4 °C 30.06in /  1017.8hPa Calm     93% 0.00in /  0mm 0 W/m2
04:19 41.7 °F /  5.4 °C 39.9 °F /  4.4 °C 30.06in /  1017.8hPa Calm     93% 0.00in /  0mm 0 W/m2
04:24 41.6 °F /  5.3 °C 39.8 °F /  4.3 °C 30.05in /  1017.5hPa Calm     93% 0.00in /  0mm 0 W/m2
04:29 41.5 °F /  5.3 °C 39.7 °F /  4.3 °C 30.05in /  1017.5hPa Calm     93% 0.00in /  0mm 0 W/m2
04:34 41.5 °F /  5.3 °C 39.7 °F /  4.3 °C 30.05in /  1017.5hPa Calm     93% 0.00in /  0mm 0 W/m2
04:39 41.5 °F /  5.3 °C 39.7 °F /  4.3 °C 30.05in /  1017.5hPa Calm     93% 0.00in /  0mm 0 W/m2
04:44 41.5 °F /  5.3 °C 39.7 °F /  4.3 °C 30.05in /  1017.5hPa Calm     93% 0.00in /  0mm 0 W/m2
04:49 41.5 °F /  5.3 °C 39.8 °F /  4.3 °C 30.04in /  1017.2hPa Calm   1mph /  1.6km/h 93.2% 0.00in /  0mm 0 W/m2
04:54 41.6 °F /  5.3 °C 39.9 °F /  4.4 °C 30.04in /  1017.2hPa Calm   1mph /  1.6km/h 93.5% 0.00in /  0mm 0 W/m2
04:59 41.5 °F /  5.3 °C 39.7 °F /  4.3 °C 30.04in /  1017.2hPa Calm     93% 0.00in /  0mm 0 W/m2
05:04 41.5 °F /  5.3 °C 39.7 °F /  4.3 °C 30.04in /  1017.2hPa Calm     93.1% 0.00in /  0mm 0 W/m2
05:09 41.5 °F /  5.3 °C 39.9 °F /  4.4 °C 30.04in /  1017.2hPa Calm     94% 0.00in /  0mm 0 W/m2
05:14 41.6 °F /  5.3 °C 40 °F /  4.4 °C 30.04in /  1017.2hPa WSW 0.1mph /  0.2km/h 2mph /  3.2km/h 94% 0.00in /  0mm 0 W/m2
05:19 42.1 °F /  5.6 °C 40.5 °F /  4.7 °C 30.04in /  1017.2hPa Calm   1mph /  1.6km/h 94% 0.00in /  0mm 0 W/m2
05:24 42.3 °F /  5.7 °C 40.6 °F /  4.8 °C 30.03in /  1016.8hPa WSW 0.1mph /  0.2km/h 2mph /  3.2km/h 94% 0.00in /  0mm 0 W/m2
05:29 42.3 °F /  5.7 °C 40.6 °F /  4.8 °C 30.03in /  1016.8hPa Calm   2mph /  3.2km/h 94% 0.00in /  0mm 0 W/m2
05:34 42.3 °F /  5.7 °C 40.6 °F /  4.8 °C 30.03in /  1016.8hPa Calm     94% 0.00in /  0mm 0 W/m2
05:39 42.1 °F /  5.6 °C 40.5 °F /  4.7 °C 30.03in /  1016.8hPa Calm     94% 0.00in /  0mm 0 W/m2
05:44 41.7 °F /  5.4 °C 40.1 °F /  4.5 °C 30.03in /  1016.8hPa Calm     94% 0.00in /  0mm 0 W/m2
05:49 41.5 °F /  5.3 °C 39.8 °F /  4.3 °C 30.03in /  1016.8hPa WSW 0.2mph /  0.3km/h 2mph /  3.2km/h 94% 0.00in /  0mm 0 W/m2
05:54 41.2 °F /  5.1 °C 39.6 °F /  4.2 °C 30.03in /  1016.8hPa Calm   2mph /  3.2km/h 94% 0.00in /  0mm 0 W/m2
05:59 41.2 °F /  5.1 °C 39.6 °F /  4.2 °C 30.03in /  1016.8hPa Calm     94% 0.00in /  0mm 0 W/m2
06:04 41.2 °F /  5.1 °C 39.6 °F /  4.2 °C 30.03in /  1016.8hPa Calm     94% 0.00in /  0mm 0 W/m2
06:09 41.3 °F /  5.2 °C 39.7 °F /  4.3 °C 30.03in /  1016.8hPa Calm     94% 0.00in /  0mm 0 W/m2
06:14 41.4 °F /  5.2 °C 39.7 °F /  4.3 °C 30.03in /  1016.8hPa Calm     94% 0.00in /  0mm 0 W/m2
06:19 41.4 °F /  5.2 °C 39.7 °F /  4.3 °C 30.03in /  1016.8hPa WSW 0.4mph /  0.6km/h 3mph /  4.8km/h 94% 0.00in /  0mm 0 W/m2
06:24 41.7 °F /  5.4 °C 40.1 °F /  4.5 °C 30.03in /  1016.8hPa SW 0.9mph /  1.4km/h 5mph /  8km/h 94% 0.00in /  0mm 0 W/m2
06:29 42.4 °F /  5.8 °C 40.8 °F /  4.9 °C 30.03in /  1016.8hPa SSW 1.6mph /  2.6km/h 5mph /  8km/h 94% 0.00in /  0mm 0 W/m2
06:34 42.8 °F /  6 °C 41.2 °F /  5.1 °C 30.03in /  1016.8hPa South 1mph /  1.6km/h 5mph /  8km/h 94% 0.01in /  0.25mm 0 W/m2
06:39 43 °F /  6.1 °C 41.6 °F /  5.3 °C 30.02in /  1016.5hPa South 0.6mph /  1km/h 3mph /  4.8km/h 94.7% 0.01in /  0.25mm 0 W/m2
06:44 43.1 °F /  6.2 °C 41.6 °F /  5.3 °C 30.02in /  1016.5hPa South 0.7mph /  1.1km/h 3mph /  4.8km/h 94.4% 0.01in /  0.25mm 0 W/m2
06:49 43.2 °F /  6.2 °C 41.6 °F /  5.3 °C 30.02in /  1016.5hPa Calm   3mph /  4.8km/h 94% 0.01in /  0.25mm 0 W/m2
06:54 43.2 °F /  6.2 °C 41.7 °F /  5.4 °C 30.02in /  1016.5hPa Calm   1mph /  1.6km/h 94.4% 0.01in /  0.25mm 0 W/m2
06:59 43.3 °F /  6.3 °C 42 °F /  5.6 °C 30.02in /  1016.5hPa South 0.1mph /  0.2km/h 1mph /  1.6km/h 95% 0.01in /  0.25mm 0 W/m2
07:04 43.6 °F /  6.4 °C 42.3 °F /  5.7 °C 30.02in /  1016.5hPa Calm   2mph /  3.2km/h 95% 0.01in /  0.25mm 0 W/m2
07:09 43.9 °F /  6.6 °C 42.6 °F /  5.9 °C 30.02in /  1016.5hPa Calm     95% 0.01in /  0.25mm 0 W/m2
07:14 43.8 °F /  6.6 °C 42.6 °F /  5.9 °C 30.01in /  1016.1hPa Calm     95% 0.01in /  0.25mm 0 W/m2
07:19 43.7 °F /  6.5 °C 42.4 °F /  5.8 °C 30.01in /  1016.1hPa South 0.3mph /  0.5km/h 3mph /  4.8km/h 95% 0.01in /  0.25mm 0 W/m2
07:24 44 °F /  6.7 °C 42.7 °F /  5.9 °C 30.01in /  1016.1hPa South 0.3mph /  0.5km/h 3mph /  4.8km/h 95% 0.01in /  0.25mm 0 W/m2
07:29 44.1 °F /  6.7 °C 42.9 °F /  6.1 °C 30.01in /  1016.1hPa South 0.4mph /  0.6km/h 3mph /  4.8km/h 95% 0.01in /  0.25mm 0 W/m2
07:34 44.2 °F /  6.8 °C 43 °F /  6.1 °C 30.01in /  1016.1hPa South 0.6mph /  1km/h 4mph /  6.4km/h 95% 0.01in /  0.25mm 0 W/m2
07:39 44.3 °F /  6.8 °C 43.1 °F /  6.2 °C 30.01in /  1016.1hPa South 0.4mph /  0.6km/h 3mph /  4.8km/h 95% 0.00in /  0mm 0 W/m2
07:44 44.4 °F /  6.9 °C 43.2 °F /  6.2 °C 30.01in /  1016.1hPa South 0.3mph /  0.5km/h 2mph /  3.2km/h 95% 0.00in /  0mm 0 W/m2
07:49 44.3 °F /  6.8 °C 43.1 °F /  6.2 °C 30.01in /  1016.1hPa South 0.3mph /  0.5km/h 2mph /  3.2km/h 95% 0.00in /  0mm 0 W/m2
07:54 44.2 °F /  6.8 °C 43 °F /  6.1 °C 30.01in /  1016.1hPa South 0.2mph /  0.3km/h 3mph /  4.8km/h 95% 0.00in /  0mm 0 W/m2
07:59 44.2 °F /  6.8 °C 43 °F /  6.1 °C 30.01in /  1016.1hPa South 0.1mph /  0.2km/h 1mph /  1.6km/h 95% 0.00in /  0mm 5 W/m2
08:04 44.2 °F /  6.8 °C 43 °F /  6.1 °C 30.01in /  1016.1hPa South 0.5mph /  0.8km/h 3mph /  4.8km/h 95% 0.00in /  0mm 5 W/m2
08:09 44.2 °F /  6.8 °C 43 °F /  6.1 °C 30.01in /  1016.1hPa South 0.3mph /  0.5km/h 3mph /  4.8km/h 95% 0.00in /  0mm 5 W/m2
08:14 44.2 °F /  6.8 °C 43 °F /  6.1 °C 30.01in /  1016.1hPa Calm   1mph /  1.6km/h 95% 0.00in /  0mm 7 W/m2
08:19 44.2 °F /  6.8 °C 43 °F /  6.1 °C 30.00in /  1015.8hPa South 0.3mph /  0.5km/h 2mph /  3.2km/h 95% 0.00in /  0mm 7 W/m2
08:24 44.2 °F /  6.8 °C 43 °F /  6.1 °C 30.00in /  1015.8hPa South 0.5mph /  0.8km/h 2mph /  3.2km/h 95% 0.00in /  0mm 9 W/m2
08:29 44.2 °F /  6.8 °C 43 °F /  6.1 °C 30.01in /  1016.1hPa South 0.7mph /  1.1km/h 3mph /  4.8km/h 95% 0.00in /  0mm 9 W/m2
08:34 44.2 °F /  6.8 °C 42.9 °F /  6.1 °C 30.00in /  1015.8hPa South 0.4mph /  0.6km/h 3mph /  4.8km/h 95% 0.00in /  0mm 11 W/m2
08:39 44.2 °F /  6.8 °C 43 °F /  6.1 °C 30.00in /  1015.8hPa South 0.8mph /  1.3km/h 3mph /  4.8km/h 95% 0.00in /  0mm 12 W/m2
08:44 44.2 °F /  6.8 °C 43 °F /  6.1 °C 30.00in /  1015.8hPa South 1mph /  1.6km/h 4mph /  6.4km/h 95% 0.00in /  0mm 12 W/m2
08:49 44.2 °F /  6.8 °C 43 °F /  6.1 °C 30.00in /  1015.8hPa South 1.1mph /  1.8km/h 3mph /  4.8km/h 95% 0.00in /  0mm 12 W/m2
08:54 44.2 °F /  6.8 °C 43 °F /  6.1 °C 30.00in /  1015.8hPa South 1mph /  1.6km/h 3mph /  4.8km/h 95% 0.00in /  0mm 16 W/m2
08:59 44.2 °F /  6.8 °C 43 °F /  6.1 °C 30.00in /  1015.8hPa South 0.5mph /  0.8km/h 3mph /  4.8km/h 95% 0.00in /  0mm 16 W/m2
09:04 44.2 °F /  6.8 °C 43 °F /  6.1 °C 29.99in /  1015.5hPa South 0.3mph /  0.5km/h 3mph /  4.8km/h 95% 0.00in /  0mm 18 W/m2
09:09 44.3 °F /  6.8 °C 43.1 °F /  6.2 °C 29.99in /  1015.5hPa South 1.4mph /  2.3km/h 4mph /  6.4km/h 95% 0.00in /  0mm 19 W/m2
09:14 44.4 °F /  6.9 °C 43.2 °F /  6.2 °C 29.99in /  1015.5hPa South 0.6mph /  1km/h 4mph /  6.4km/h 95% 0.00in /  0mm 47 W/m2
09:19 44.4 °F /  6.9 °C 43.2 °F /  6.2 °C 29.99in /  1015.5hPa South 0.8mph /  1.3km/h 3mph /  4.8km/h 95% 0.00in /  0mm 25 W/m2
09:24 44.5 °F /  6.9 °C 43.3 °F /  6.3 °C 29.99in /  1015.5hPa South 1.1mph /  1.8km/h 4mph /  6.4km/h 95.5% 0.00in /  0mm 58 W/m2
09:29 44.5 °F /  6.9 °C 43.4 °F /  6.3 °C 30.00in /  1015.8hPa South 1.6mph /  2.6km/h 6mph /  9.7km/h 96% 0.00in /  0mm 76 W/m2
09:34 44.6 °F /  7 °C 43.5 °F /  6.4 °C 30.00in /  1015.8hPa SSE 1.4mph /  2.3km/h 6mph /  9.7km/h 96% 0.00in /  0mm 88 W/m2
09:39 44.6 °F /  7 °C 43.5 °F /  6.4 °C 30.00in /  1015.8hPa SSE 1.8mph /  2.9km/h 5mph /  8km/h 96% 0.00in /  0mm 86 W/m2
09:44 44.5 °F /  6.9 °C 43.4 °F /  6.3 °C 30.00in /  1015.8hPa SSE 1.7mph /  2.7km/h 5mph /  8km/h 96% 0.00in /  0mm 93 W/m2
09:49 44.5 °F /  6.9 °C 43.3 °F /  6.3 °C 30.00in /  1015.8hPa SSE 0.5mph /  0.8km/h 3mph /  4.8km/h 95.4% 0.00in /  0mm 84 W/m2
09:54 44.7 °F /  7.1 °C 43.6 °F /  6.4 °C 29.99in /  1015.5hPa SSE 0.8mph /  1.3km/h 3mph /  4.8km/h 95.8% 0.00in /  0mm 102 W/m2
09:59 44.8 °F /  7.1 °C 43.7 °F /  6.5 °C 29.99in /  1015.5hPa SSE 0.7mph /  1.1km/h 4mph /  6.4km/h 96% 0.00in /  0mm 183 W/m2
10:04 45.1 °F /  7.3 °C 44 °F /  6.7 °C 29.98in /  1015.1hPa SSE 0.5mph /  0.8km/h 2mph /  3.2km/h 96% 0.00in /  0mm 192 W/m2
10:09 45.3 °F /  7.4 °C 44.2 °F /  6.8 °C 29.98in /  1015.1hPa SSE 0.4mph /  0.6km/h 2mph /  3.2km/h 96% 0.00in /  0mm 155 W/m2
10:14 45.3 °F /  7.4 °C 44.2 °F /  6.8 °C 29.98in /  1015.1hPa SSE 1mph /  1.6km/h 3mph /  4.8km/h 96% 0.00in /  0mm 121 W/m2
10:19 45.3 °F /  7.4 °C 44.2 °F /  6.8 °C 29.98in /  1015.1hPa SSE 1.2mph /  1.9km/h 4mph /  6.4km/h 96% 0.00in /  0mm 127 W/m2
10:24 45.3 °F /  7.4 °C 44.2 °F /  6.8 °C 29.97in /  1014.8hPa SSE 1.2mph /  1.9km/h 3mph /  4.8km/h 96% 0.00in /  0mm 146 W/m2
10:29 45.1 °F /  7.3 °C 44.1 °F /  6.7 °C 29.97in /  1014.8hPa SSE 1.1mph /  1.8km/h 4mph /  6.4km/h 96% 0.00in /  0mm 148 W/m2
10:34 45.1 °F /  7.3 °C 44.1 °F /  6.7 °C 29.97in /  1014.8hPa SSE 1.6mph /  2.6km/h 4mph /  6.4km/h 96% 0.00in /  0mm 171 W/m2
10:39 45.2 °F /  7.3 °C 44.2 °F /  6.8 °C 29.96in /  1014.4hPa SSE 1.2mph /  1.9km/h 4mph /  6.4km/h 96% 0.00in /  0mm 67 W/m2
10:44 45.1 °F /  7.3 °C 44.1 °F /  6.7 °C 29.96in /  1014.4hPa SE 2.7mph /  4.3km/h 7mph /  11.3km/h 96% 0.00in /  0mm 60 W/m2
10:49 45.2 °F /  7.3 °C 44.2 °F /  6.8 °C 29.96in /  1014.4hPa SE 2mph /  3.2km/h 8mph /  12.9km/h 96% 0.00in /  0mm 74 W/m2
10:54 45.3 °F /  7.4 °C 44.2 °F /  6.8 °C 29.96in /  1014.4hPa SE 2mph /  3.2km/h 6mph /  9.7km/h 96% 0.00in /  0mm 90 W/m2
10:59 45.3 °F /  7.4 °C 44.2 °F /  6.8 °C 29.96in /  1014.4hPa SE 1.4mph /  2.3km/h 5mph /  8km/h 96% 0.00in /  0mm 111 W/m2
11:04 45.3 °F /  7.4 °C 44.2 °F /  6.8 °C 29.95in /  1014.1hPa SE 1.4mph /  2.3km/h 5mph /  8km/h 96% 0.00in /  0mm 120 W/m2
11:09 45.7 °F /  7.6 °C 44.6 °F /  7 °C 29.95in /  1014.1hPa ESE 3.1mph /  5km/h 8mph /  12.9km/h 96% 0.00in /  0mm 176 W/m2
11:14 45.8 °F /  7.7 °C 44.7 °F /  7.1 °C 29.95in /  1014.1hPa ESE 0.7mph /  1.1km/h 5mph /  8km/h 96% 0.00in /  0mm 227 W/m2
11:19 46.3 °F /  7.9 °C 45.2 °F /  7.3 °C 29.95in /  1014.1hPa ESE 0.6mph /  1km/h 3mph /  4.8km/h 96% 0.00in /  0mm 227 W/m2
11:24 46.7 °F /  8.2 °C 45.6 °F /  7.6 °C 29.95in /  1014.1hPa ESE 0.6mph /  1km/h 4mph /  6.4km/h 96% 0.00in /  0mm 269 W/m2
11:29 46.8 °F /  8.2 °C 45.8 °F /  7.7 °C 29.95in /  1014.1hPa ESE 1mph /  1.6km/h 4mph /  6.4km/h 96% 0.00in /  0mm 237 W/m2
11:34 46.9 °F /  8.3 °C 45.8 °F /  7.7 °C 29.94in /  1013.8hPa ESE 1.4mph /  2.3km/h 4mph /  6.4km/h 96% 0.00in /  0mm 320 W/m2
11:39 47.3 °F /  8.5 °C 46.2 °F /  7.9 °C 29.94in /  1013.8hPa ESE 0.5mph /  0.8km/h 3mph /  4.8km/h 96% 0.00in /  0mm 432 W/m2
11:44 49.1 °F /  9.5 °C 48 °F /  8.9 °C 29.94in /  1013.8hPa ESE 0.6mph /  1km/h 3mph /  4.8km/h 96% 0.00in /  0mm 432 W/m2
11:49 49.3 °F /  9.6 °C 48.2 °F /  9 °C 29.93in /  1013.4hPa ESE 0.4mph /  0.6km/h 3mph /  4.8km/h 96% 0.00in /  0mm 116 W/m2
11:54 48.8 °F /  9.3 °C 47.7 °F /  8.7 °C 29.93in /  1013.4hPa ESE 0.5mph /  0.8km/h 3mph /  4.8km/h 96% 0.00in /  0mm 174 W/m2
11:59 48.6 °F /  9.2 °C 47.5 °F /  8.6 °C 29.93in /  1013.4hPa ESE 0.3mph /  0.5km/h 2mph /  3.2km/h 96% 0.00in /  0mm 185 W/m2
12:04 48.9 °F /  9.4 °C 47.8 °F /  8.8 °C 29.93in /  1013.4hPa ESE 0.8mph /  1.3km/h 3mph /  4.8km/h 96% 0.00in /  0mm 272 W/m2
12:09 49.1 °F /  9.5 °C 48 °F /  8.9 °C 29.93in /  1013.4hPa ESE 1mph /  1.6km/h 3mph /  4.8km/h 96% 0.00in /  0mm 221 W/m2
12:14 49.5 °F /  9.7 °C 48.4 °F /  9.1 °C 29.93in /  1013.4hPa ESE 0.4mph /  0.6km/h 3mph /  4.8km/h 96% 0.00in /  0mm 244 W/m2
12:19 50.2 °F /  10.1 °C 49.1 °F /  9.5 °C 29.92in /  1013.1hPa ESE 0.8mph /  1.3km/h 3mph /  4.8km/h 96% 0.00in /  0mm 193 W/m2
12:24 50.2 °F /  10.1 °C 49.1 °F /  9.5 °C 29.92in /  1013.1hPa ESE 0.3mph /  0.5km/h 3mph /  4.8km/h 96% 0.00in /  0mm 213 W/m2
12:29 50 °F /  10 °C 48.9 °F /  9.4 °C 29.92in /  1013.1hPa ESE 1.1mph /  1.8km/h 4mph /  6.4km/h 96% 0.00in /  0mm 225 W/m2
12:34 49.7 °F /  9.8 °C 48.6 °F /  9.2 °C 29.92in /  1013.1hPa ESE 0.9mph /  1.4km/h 3mph /  4.8km/h 95.7% 0.00in /  0mm 250 W/m2
12:39 50.3 °F /  10.2 °C 49.1 °F /  9.5 °C 29.91in /  1012.8hPa ESE 1.2mph /  1.9km/h 5mph /  8km/h 95.6% 0.00in /  0mm 264 W/m2
12:44 50.8 °F /  10.4 °C 49.5 °F /  9.7 °C 29.91in /  1012.8hPa ESE 0.4mph /  0.6km/h 3mph /  4.8km/h 95.3% 0.00in /  0mm 250 W/m2
12:49 50.8 °F /  10.4 °C 49.4 °F /  9.7 °C 29.91in /  1012.8hPa Calm   2mph /  3.2km/h 95% 0.00in /  0mm 260 W/m2
12:54 51.6 °F /  10.9 °C 50.2 °F /  10.1 °C 29.90in /  1012.4hPa ESE 0.4mph /  0.6km/h 2mph /  3.2km/h 95% 0.00in /  0mm 287 W/m2
12:59 51.8 °F /  11 °C 50.3 °F /  10.2 °C 29.90in /  1012.4hPa ESE 1.2mph /  1.9km/h 3mph /  4.8km/h 95% 0.00in /  0mm 418 W/m2
13:04 52.5 °F /  11.4 °C 50.8 °F /  10.4 °C 29.90in /  1012.4hPa ESE 1.2mph /  1.9km/h 4mph /  6.4km/h 94% 0.00in /  0mm 529 W/m2
13:09 53.3 °F /  11.8 °C 51.4 °F /  10.8 °C 29.90in /  1012.4hPa ESE 1.2mph /  1.9km/h 5mph /  8km/h 93.2% 0.00in /  0mm 457 W/m2
13:14 54.4 °F /  12.4 °C 52.1 °F /  11.2 °C 29.90in /  1012.4hPa ESE 1.6mph /  2.6km/h 5mph /  8km/h 91.7% 0.00in /  0mm 308 W/m2
13:19 54.6 °F /  12.6 °C 51.5 °F /  10.8 °C 29.89in /  1012.1hPa ESE 0.4mph /  0.6km/h 4mph /  6.4km/h 89.5% 0.00in /  0mm 225 W/m2
13:24 54.2 °F /  12.3 °C 50.8 °F /  10.4 °C 29.89in /  1012.1hPa ESE 0.6mph /  1km/h 3mph /  4.8km/h 88% 0.00in /  0mm 202 W/m2
13:29 54.1 °F /  12.3 °C 50.6 °F /  10.3 °C 29.88in /  1011.7hPa ESE 1.8mph /  2.9km/h 5mph /  8km/h 88% 0.00in /  0mm 251 W/m2
13:34 54.1 °F /  12.3 °C 50.4 °F /  10.2 °C 29.88in /  1011.7hPa ESE 1.2mph /  1.9km/h 5mph /  8km/h 87% 0.00in /  0mm 223 W/m2
13:39 54.3 °F /  12.4 °C 50.5 °F /  10.3 °C 29.88in /  1011.7hPa ESE 3.1mph /  5km/h 7mph /  11.3km/h 87% 0.00in /  0mm 232 W/m2
13:44 54.3 °F /  12.4 °C 50.5 °F /  10.3 °C 29.88in /  1011.7hPa ESE 1.8mph /  2.9km/h 6mph /  9.7km/h 87% 0.00in /  0mm 207 W/m2
13:49 54.2 °F /  12.3 °C 50.5 °F /  10.3 °C 29.87in /  1011.4hPa ESE 1.4mph /  2.3km/h 5mph /  8km/h 87% 0.00in /  0mm 179 W/m2
13:54 54.3 °F /  12.4 °C 50.5 °F /  10.3 °C 29.87in /  1011.4hPa ESE 1.2mph /  1.9km/h 4mph /  6.4km/h 87% 0.00in /  0mm 251 W/m2
13:59 54.8 °F /  12.7 °C 51 °F /  10.6 °C 29.86in /  1011.1hPa ESE 0.4mph /  0.6km/h 4mph /  6.4km/h 87% 0.00in /  0mm 302 W/m2
14:04 55.6 °F /  13.1 °C 51.8 °F /  11 °C 29.85in /  1010.7hPa ESE 1mph /  1.6km/h 5mph /  8km/h 87% 0.00in /  0mm 606 W/m2
14:09 57.5 °F /  14.2 °C 53 °F /  11.7 °C 29.85in /  1010.7hPa ESE 1.8mph /  2.9km/h 5mph /  8km/h 85.2% 0.00in /  0mm 605 W/m2
14:14 58.4 °F /  14.7 °C 52.9 °F /  11.6 °C 29.85in /  1010.7hPa ESE 1.9mph /  3.1km/h 5mph /  8km/h 81.9% 0.00in /  0mm 357 W/m2
14:19 58.2 °F /  14.6 °C 52.3 °F /  11.3 °C 29.85in /  1010.7hPa ESE 1.5mph /  2.4km/h 4mph /  6.4km/h 80.7% 0.00in /  0mm 227 W/m2
14:24 57.6 °F /  14.2 °C 51.6 °F /  10.9 °C 29.85in /  1010.7hPa ESE 1mph /  1.6km/h 4mph /  6.4km/h 80.4% 0.00in /  0mm 172 W/m2
14:29 57.1 °F /  13.9 °C 51.4 °F /  10.8 °C 29.85in /  1010.7hPa ESE 0.8mph /  1.3km/h 3mph /  4.8km/h 81% 0.00in /  0mm 163 W/m2
14:34 56.8 °F /  13.8 °C 51.3 °F /  10.7 °C 29.85in /  1010.7hPa ESE 0.8mph /  1.3km/h 3mph /  4.8km/h 81.8% 0.00in /  0mm 139 W/m2
14:39 56.7 °F /  13.7 °C 51.3 °F /  10.7 °C 29.85in /  1010.7hPa ESE 0.9mph /  1.4km/h 3mph /  4.8km/h 82% 0.00in /  0mm 125 W/m2
14:44 56.6 °F /  13.7 °C 51.5 °F /  10.8 °C 29.84in /  1010.4hPa ESE 0.5mph /  0.8km/h 3mph /  4.8km/h 83% 0.00in /  0mm 109 W/m2
14:49 56.6 °F /  13.7 °C 51.5 °F /  10.8 °C 29.85in /  1010.7hPa ESE 1.1mph /  1.8km/h 4mph /  6.4km/h 83% 0.00in /  0mm 107 W/m2
14:54 56.5 °F /  13.6 °C 51.4 °F /  10.8 °C 29.85in /  1010.7hPa ESE 0.8mph /  1.3km/h 3mph /  4.8km/h 83% 0.00in /  0mm 102 W/m2
14:59 56.3 °F /  13.5 °C 51.3 °F /  10.7 °C 29.85in /  1010.7hPa ESE 0.4mph /  0.6km/h 3mph /  4.8km/h 83% 0.00in /  0mm 100 W/m2
15:04 56.3 °F /  13.5 °C 51.3 °F /  10.7 °C 29.85in /  1010.7hPa ESE 0.1mph /  0.2km/h 1mph /  1.6km/h 83% 0.00in /  0mm 81 W/m2
15:09 56.5 °F /  13.6 °C 51.6 °F /  10.9 °C 29.85in /  1010.7hPa Calm   1mph /  1.6km/h 84% 0.00in /  0mm 91 W/m2
15:14 56.5 °F /  13.6 °C 51.6 °F /  10.9 °C 29.84in /  1010.4hPa Calm   1mph /  1.6km/h 84% 0.00in /  0mm 102 W/m2
15:19 56.5 °F /  13.6 °C 51.6 °F /  10.9 °C 29.84in /  1010.4hPa Calm   1mph /  1.6km/h 84% 0.00in /  0mm 121 W/m2
15:24 56.1 °F /  13.4 °C 51.4 °F /  10.8 °C 29.84in /  1010.4hPa ESE 0.4mph /  0.6km/h 2mph /  3.2km/h 84% 0.00in /  0mm 127 W/m2
15:29 55.9 °F /  13.3 °C 51.3 °F /  10.7 °C 29.84in /  1010.4hPa Calm   2mph /  3.2km/h 84% 0.00in /  0mm 125 W/m2
15:34 55.9 °F /  13.3 °C 51.3 °F /  10.7 °C 29.84in /  1010.4hPa ESE 0.1mph /  0.2km/h 2mph /  3.2km/h 84% 0.00in /  0mm 113 W/m2
15:39 56.1 °F /  13.4 °C 51.4 °F /  10.8 °C 29.83in /  1010hPa Calm   2mph /  3.2km/h 84% 0.00in /  0mm 81 W/m2
15:44 56.3 °F /  13.5 °C 51.8 °F /  11 °C 29.83in /  1010hPa ESE 0.4mph /  0.6km/h 2mph /  3.2km/h 85% 0.00in /  0mm 65 W/m2
15:49 56.5 °F /  13.6 °C 51.7 °F /  10.9 °C 29.83in /  1010hPa ESE 0.4mph /  0.6km/h 3mph /  4.8km/h 84.2% 0.00in /  0mm 63 W/m2
15:54 56.5 °F /  13.6 °C 51.6 °F /  10.9 °C 29.82in /  1009.7hPa Calm     84% 0.00in /  0mm 44 W/m2
15:59 56.5 °F /  13.6 °C 51.6 °F /  10.9 °C 29.82in /  1009.7hPa Calm   1mph /  1.6km/h 84% 0.00in /  0mm 33 W/m2
16:04 56.5 °F /  13.6 °C 51.6 °F /  10.9 °C 29.82in /  1009.7hPa Calm     84% 0.00in /  0mm 25 W/m2
16:09 56.5 °F /  13.6 °C 51.6 °F /  10.9 °C 29.82in /  1009.7hPa Calm   1mph /  1.6km/h 84% 0.00in /  0mm 23 W/m2
16:14 56.5 °F /  13.6 °C 51.6 °F /  10.9 °C 29.82in /  1009.7hPa Calm   1mph /  1.6km/h 84% 0.00in /  0mm 23 W/m2
16:19 56.3 °F /  13.5 °C 51.4 °F /  10.8 °C 29.82in /  1009.7hPa Calm   1mph /  1.6km/h 84% 0.00in /  0mm 25 W/m2
16:24 56.2 °F /  13.4 °C 51.6 °F /  10.9 °C 29.82in /  1009.7hPa ESE 0.1mph /  0.2km/h 2mph /  3.2km/h 84.8% 0.00in /  0mm 28 W/m2
16:29 56.1 °F /  13.4 °C 51.6 °F /  10.9 °C 29.82in /  1009.7hPa ESE 0.3mph /  0.5km/h 2mph /  3.2km/h 85% 0.00in /  0mm 30 W/m2
16:34 56.1 °F /  13.4 °C 51.6 °F /  10.9 °C 29.81in /  1009.4hPa Calm     85% 0.00in /  0mm 30 W/m2
16:39 56.1 °F /  13.4 °C 51.6 °F /  10.9 °C 29.81in /  1009.4hPa Calm     85% 0.00in /  0mm 26 W/m2
16:44 56.1 °F /  13.4 °C 51.6 °F /  10.9 °C 29.81in /  1009.4hPa Calm   1mph /  1.6km/h 85% 0.00in /  0mm 25 W/m2
16:49 56 °F /  13.3 °C 51.5 °F /  10.8 °C 29.80in /  1009hPa Calm     85% 0.00in /  0mm 23 W/m2
16:54 55.9 °F /  13.3 °C 51.4 °F /  10.8 °C 29.80in /  1009hPa Calm     85% 0.00in /  0mm 42 W/m2
16:59 55.9 °F /  13.3 °C 51.5 °F /  10.8 °C 29.80in /  1009hPa Calm     85.1% 0.00in /  0mm 47 W/m2
17:04 55.9 °F /  13.3 °C 51.8 °F /  11 °C 29.79in /  1008.7hPa Calm   1mph /  1.6km/h 86% 0.00in /  0mm 47 W/m2
17:09 55.9 °F /  13.3 °C 51.7 °F /  10.9 °C 29.80in /  1009hPa Calm   1mph /  1.6km/h 86% 0.00in /  0mm 39 W/m2
17:14 55.9 °F /  13.3 °C 51.8 °F /  11 °C 29.79in /  1008.7hPa Calm     86% 0.00in /  0mm 25 W/m2
17:19 55.9 °F /  13.3 °C 51.8 °F /  11 °C 29.79in /  1008.7hPa Calm   1mph /  1.6km/h 86% 0.00in /  0mm 18 W/m2
17:24 55.8 °F /  13.2 °C 51.7 °F /  10.9 °C 29.79in /  1008.7hPa ESE 0.2mph /  0.3km/h 2mph /  3.2km/h 86% 0.00in /  0mm 18 W/m2
17:29 55.8 °F /  13.2 °C 52 °F /  11.1 °C 29.79in /  1008.7hPa ESE 0.1mph /  0.2km/h 2mph /  3.2km/h 87% 0.01in /  0.25mm 12 W/m2
17:34 55.8 °F /  13.2 °C 52 °F /  11.1 °C 29.79in /  1008.7hPa Calm   1mph /  1.6km/h 87% 0.01in /  0.25mm 12 W/m2
17:39 55.7 °F /  13.2 °C 51.9 °F /  11.1 °C 29.79in /  1008.7hPa ESE 0.1mph /  0.2km/h 1mph /  1.6km/h 87.1% 0.01in /  0.25mm 14 W/m2
17:44 55.6 °F /  13.1 °C 52.2 °F /  11.2 °C 29.78in /  1008.4hPa Calm   1mph /  1.6km/h 88% 0.02in /  0.51mm 14 W/m2
17:49 55.6 °F /  13.1 °C 52.2 °F /  11.2 °C 29.78in /  1008.4hPa Calm   1mph /  1.6km/h 88% 0.02in /  0.51mm 9 W/m2
17:54 55.4 °F /  13 °C 52 °F /  11.1 °C 29.78in /  1008.4hPa ESE 0.1mph /  0.2km/h 1mph /  1.6km/h 88% 0.02in /  0.51mm 5 W/m2
17:59 55.1 °F /  12.8 °C 51.7 °F /  10.9 °C 29.78in /  1008.4hPa ESE 0.3mph /  0.5km/h 2mph /  3.2km/h 88% 0.02in /  0.51mm 0 W/m2
18:04 54.9 °F /  12.7 °C 51.5 °F /  10.8 °C 29.78in /  1008.4hPa Calm   1mph /  1.6km/h 88.7% 0.02in /  0.51mm 0 W/m2
18:09 54.7 °F /  12.6 °C 51.4 °F /  10.8 °C 29.78in /  1008.4hPa ESE 0.2mph /  0.3km/h 1mph /  1.6km/h 89% 0.02in /  0.51mm 0 W/m2
18:14 54.6 °F /  12.6 °C 51.4 °F /  10.8 °C 29.78in /  1008.4hPa ESE 0.5mph /  0.8km/h 5mph /  8km/h 89.4% 0.02in /  0.51mm 0 W/m2
18:19 54.3 °F /  12.4 °C 51.4 °F /  10.8 °C 29.78in /  1008.4hPa ESE 1.7mph /  2.7km/h 5mph /  8km/h 90% 0.02in /  0.51mm 0 W/m2
18:24 54.3 °F /  12.4 °C 51.4 °F /  10.8 °C 29.78in /  1008.4hPa ESE 0.6mph /  1km/h 3mph /  4.8km/h 90% 0.02in /  0.51mm 0 W/m2
18:29 54.3 °F /  12.4 °C 51.4 °F /  10.8 °C 29.78in /  1008.4hPa Calm   1mph /  1.6km/h 90% 0.02in /  0.51mm 0 W/m2
18:34 54.2 °F /  12.3 °C 51.5 °F /  10.8 °C 29.78in /  1008.4hPa ESE 0.3mph /  0.5km/h 2mph /  3.2km/h 90.4% 0.02in /  0.51mm 0 W/m2
18:39 54.1 °F /  12.3 °C 51.6 °F /  10.9 °C 29.78in /  1008.4hPa ESE 0.1mph /  0.2km/h 2mph /  3.2km/h 91% 0.02in /  0.51mm 0 W/m2
18:44 54.1 °F /  12.3 °C 51.6 °F /  10.9 °C 29.77in /  1008hPa ESE 0.6mph /  1km/h 3mph /  4.8km/h 91% 0.02in /  0.51mm 0 W/m2
18:49 54.1 °F /  12.3 °C 51.5 °F /  10.8 °C 29.77in /  1008hPa ESE 0.1mph /  0.2km/h 2mph /  3.2km/h 91% 0.02in /  0.51mm 0 W/m2
18:54 54 °F /  12.2 °C 51.4 °F /  10.8 °C 29.77in /  1008hPa ESE 0.1mph /  0.2km/h 2mph /  3.2km/h 91% 0.01in /  0.25mm 0 W/m2
18:59 54 °F /  12.2 °C 51.4 °F /  10.8 °C 29.77in /  1008hPa ESE 0.7mph /  1.1km/h 4mph /  6.4km/h 91% 0.01in /  0.25mm 0 W/m2
19:04 53.9 °F /  12.2 °C 51.4 °F /  10.8 °C 29.78in /  1008.4hPa ESE 1mph /  1.6km/h 4mph /  6.4km/h 91% 0.01in /  0.25mm 0 W/m2
19:09 53.8 °F /  12.1 °C 51.3 °F /  10.7 °C 29.77in /  1008hPa ESE 0.4mph /  0.6km/h 3mph /  4.8km/h 91.2% 0.01in /  0.25mm 0 W/m2
19:14 53.8 °F /  12.1 °C 51.4 °F /  10.8 °C 29.77in /  1008hPa ESE 0.2mph /  0.3km/h 3mph /  4.8km/h 91.7% 0.01in /  0.25mm 0 W/m2
19:19 53.9 °F /  12.2 °C 51.5 °F /  10.8 °C 29.77in /  1008hPa Calm   2mph /  3.2km/h 92% 0.01in /  0.25mm 0 W/m2
19:24 53.9 °F /  12.2 °C 51.5 °F /  10.8 °C 29.77in /  1008hPa ESE 0.2mph /  0.3km/h 1mph /  1.6km/h 92% 0.01in /  0.25mm 0 W/m2
19:29 53.8 °F /  12.1 °C 51.4 °F /  10.8 °C 29.76in /  1007.7hPa ESE 0.4mph /  0.6km/h 3mph /  4.8km/h 92% 0.01in /  0.25mm 0 W/m2
19:34 53.8 °F /  12.1 °C 51.4 °F /  10.8 °C 29.76in /  1007.7hPa ESE 0.2mph /  0.3km/h 3mph /  4.8km/h 92% 0.00in /  0mm 0 W/m2
19:39 53.7 °F /  12.1 °C 51.4 °F /  10.8 °C 29.76in /  1007.7hPa Calm   2mph /  3.2km/h 92% 0.00in /  0mm 0 W/m2
19:44 53.6 °F /  12 °C 51.3 °F /  10.7 °C 29.76in /  1007.7hPa Calm   1mph /  1.6km/h 92% 0.00in /  0mm 0 W/m2
19:49 53.6 °F /  12 °C 51.3 °F /  10.7 °C 29.76in /  1007.7hPa Calm     92% 0.00in /  0mm 0 W/m2
19:54 53.6 °F /  12 °C 51.3 °F /  10.7 °C 29.76in /  1007.7hPa Calm     92% 0.00in /  0mm 0 W/m2
19:59 53.5 °F /  11.9 °C 51.2 °F /  10.7 °C 29.76in /  1007.7hPa ESE 0.1mph /  0.2km/h 1mph /  1.6km/h 92% 0.02in /  0.51mm 0 W/m2
20:04 53.6 °F /  12 °C 51.3 °F /  10.7 °C 29.76in /  1007.7hPa ESE 0.1mph /  0.2km/h 2mph /  3.2km/h 92% 0.02in /  0.51mm 0 W/m2
20:29 53.4 °F /  11.9 °C 51.4 °F /  10.8 °C 29.76in /  1007.7hPa Calm     93% 0.06in /  1.52mm 0 W/m2
20:34 53.4 °F /  11.9 °C 51.4 °F /  10.8 °C 29.76in /  1007.7hPa ESE 0.3mph /  0.5km/h 1mph /  1.6km/h 93% 0.06in /  1.52mm 0 W/m2
20:39 53.4 °F /  11.9 °C 51.4 °F /  10.8 °C 29.76in /  1007.7hPa ESE 0.1mph /  0.2km/h 1mph /  1.6km/h 93% 0.07in /  1.78mm 0 W/m2
20:44 53.4 °F /  11.9 °C 51.4 °F /  10.8 °C 29.76in /  1007.7hPa Calm   1mph /  1.6km/h 93% 0.07in /  1.78mm 0 W/m2
20:49 53.4 °F /  11.9 °C 51.4 °F /  10.8 °C 29.76in /  1007.7hPa Calm   1mph /  1.6km/h 93% 0.08in /  2.03mm 0 W/m2
20:54 53.4 °F /  11.9 °C 51.4 °F /  10.8 °C 29.75in /  1007.3hPa Calm   1mph /  1.6km/h 93% 0.09in /  2.29mm 0 W/m2
20:59 53.4 °F /  11.9 °C 51.4 °F /  10.8 °C 29.75in /  1007.3hPa Calm     93% 0.09in /  2.29mm 0 W/m2
21:04 53.4 °F /  11.9 °C 51.4 °F /  10.8 °C 29.75in /  1007.3hPa Calm     93% 0.07in /  1.78mm 0 W/m2
21:09 53.3 °F /  11.8 °C 51.3 °F /  10.7 °C 29.75in /  1007.3hPa Calm     93% 0.07in /  1.78mm 0 W/m2
21:14 53.2 °F /  11.8 °C 51.3 °F /  10.7 °C 29.75in /  1007.3hPa ESE 0.3mph /  0.5km/h 1mph /  1.6km/h 93% 0.06in /  1.52mm 0 W/m2
21:19 53.2 °F /  11.8 °C 51.2 °F /  10.7 °C 29.75in /  1007.3hPa Calm   1mph /  1.6km/h 93% 0.05in /  1.27mm 0 W/m2
21:24 53.1 °F /  11.7 °C 51.1 °F /  10.6 °C 29.74in /  1007hPa Calm     93% 0.04in /  1.02mm 0 W/m2
21:29 53 °F /  11.7 °C 51 °F /  10.6 °C 29.74in /  1007hPa Calm     93% 0.04in /  1.02mm 0 W/m2
21:34 52.9 °F /  11.6 °C 50.9 °F /  10.5 °C 29.74in /  1007hPa Calm     93% 0.03in /  0.76mm 0 W/m2
21:39 53 °F /  11.7 °C 51 °F /  10.6 °C 29.74in /  1007hPa Calm     93% 0.02in /  0.51mm 0 W/m2
21:44 53.1 °F /  11.7 °C 51.1 °F /  10.6 °C 29.73in /  1006.7hPa Calm     93% 0.02in /  0.51mm 0 W/m2
21:49 53.1 °F /  11.7 °C 51.4 °F /  10.8 °C 29.73in /  1006.7hPa Calm     94% 0.02in /  0.51mm 0 W/m2
21:54 53 °F /  11.7 °C 51.4 °F /  10.8 °C 29.73in /  1006.7hPa Calm     94% 0.01in /  0.25mm 0 W/m2
21:59 52.9 °F /  11.6 °C 51.3 °F /  10.7 °C 29.73in /  1006.7hPa Calm     94% 0.00in /  0mm 0 W/m2
22:04 52.9 °F /  11.6 °C 51.3 °F /  10.7 °C 29.72in /  1006.3hPa ESE 0.1mph /  0.2km/h 2mph /  3.2km/h 94% 0.00in /  0mm 0 W/m2
22:09 52.8 °F /  11.6 °C 51.2 °F /  10.7 °C 29.72in /  1006.3hPa ESE 1mph /  1.6km/h 3mph /  4.8km/h 94% 0.00in /  0mm 0 W/m2
22:14 52.7 °F /  11.5 °C 51.1 °F /  10.6 °C 29.72in /  1006.3hPa ESE 1.1mph /  1.8km/h 3mph /  4.8km/h 94% 0.00in /  0mm 0 W/m2
22:19 52.5 °F /  11.4 °C 50.9 °F /  10.5 °C 29.72in /  1006.3hPa ESE 0.9mph /  1.4km/h 3mph /  4.8km/h 94% 0.01in /  0.25mm 0 W/m2
22:24 52.4 °F /  11.3 °C 50.8 °F /  10.4 °C 29.72in /  1006.3hPa ESE 1.3mph /  2.1km/h 4mph /  6.4km/h 94% 0.01in /  0.25mm 0 W/m2
22:29 52.2 °F /  11.2 °C 50.6 °F /  10.3 °C 29.72in /  1006.3hPa ESE 1.2mph /  1.9km/h 4mph /  6.4km/h 94% 0.01in /  0.25mm 0 W/m2
22:34 52.2 °F /  11.2 °C 50.5 °F /  10.3 °C 29.72in /  1006.3hPa ESE 0.4mph /  0.6km/h 2mph /  3.2km/h 94% 0.02in /  0.51mm 0 W/m2
22:39 52.2 °F /  11.2 °C 50.5 °F /  10.3 °C 29.73in /  1006.7hPa ESE 0.2mph /  0.3km/h 2mph /  3.2km/h 94% 0.02in /  0.51mm 0 W/m2
22:44 52.2 °F /  11.2 °C 50.5 °F /  10.3 °C 29.73in /  1006.7hPa Calm     94% 0.02in /  0.51mm 0 W/m2
22:49 52.2 °F /  11.2 °C 50.5 °F /  10.3 °C 29.73in /  1006.7hPa Calm     94% 0.02in /  0.51mm 0 W/m2
22:54 52.2 °F /  11.2 °C 50.5 °F /  10.3 °C 29.73in /  1006.7hPa Calm   1mph /  1.6km/h 94% 0.02in /  0.51mm 0 W/m2
22:59 52.2 °F /  11.2 °C 50.5 °F /  10.3 °C 29.73in /  1006.7hPa Calm     94% 0.02in /  0.51mm 0 W/m2
23:04 52.2 °F /  11.2 °C 50.5 °F /  10.3 °C 29.73in /  1006.7hPa Calm     94% 0.02in /  0.51mm 0 W/m2
23:09 52.3 °F /  11.3 °C 50.7 °F /  10.4 °C 29.72in /  1006.3hPa Calm     94% 0.02in /  0.51mm 0 W/m2
23:14 52.3 °F /  11.3 °C 50.7 °F /  10.4 °C 29.72in /  1006.3hPa Calm     94% 0.02in /  0.51mm 0 W/m2
23:19 52.3 °F /  11.3 °C 50.7 °F /  10.4 °C 29.72in /  1006.3hPa Calm     94% 0.02in /  0.51mm 0 W/m2
23:24 52.3 °F /  11.3 °C 50.7 °F /  10.4 °C 29.71in /  1006hPa Calm     94% 0.02in /  0.51mm 0 W/m2
23:29 52.3 °F /  11.3 °C 50.7 °F /  10.4 °C 29.71in /  1006hPa Calm     94.2% 0.02in /  0.51mm 0 W/m2
23:34 52.3 °F /  11.3 °C 50.8 °F /  10.4 °C 29.71in /  1006hPa Calm     94.7% 0.02in /  0.51mm 0 W/m2
23:39 52.2 °F /  11.2 °C 50.6 °F /  10.3 °C 29.71in /  1006hPa Calm   1mph /  1.6km/h 94.2% 0.01in /  0.25mm 0 W/m2
23:44 52.2 °F /  11.2 °C 50.5 °F /  10.3 °C 29.71in /  1006hPa Calm   1mph /  1.6km/h 94% 0.01in /  0.25mm 0 W/m2
23:49 52 °F /  11.1 °C 50.4 °F /  10.2 °C 29.71in /  1006hPa Calm   1mph /  1.6km/h 94.3% 0.01in /  0.25mm 0 W/m2
23:54 52 °F /  11.1 °C 50.5 °F /  10.3 °C 29.71in /  1006hPa Calm     94.8% 0.01in /  0.25mm 0 W/m2
23:59 52 °F /  11.1 °C 50.5 °F /  10.3 °C 29.70in /  1005.6hPa Calm   1mph /  1.6km/h 95% 0.01in /  0.25mm 0 W/m2
Bath Spa Weather
Compliments of Weather Underground - 2 mb